Accueil
METAR-TAF:

METAR-TAF

Aéroports :

Castres, France

Aéroport de Castres-Mazamet

latitude: 43-33-25N, longitude: 2-17-21E, altitude: 239 m

Observation

Le bulletin a été fait il y a 33 minutes, à 18:00 UTC
Vent 13 kt de nord-ouest
Température 3°C
Humidité 87%
Pression 1024 hPa
Visibilité 10 km ou plus
pluie faible

METAR: LFCK 161800Z AUTO 32013KT 9999 -RA SCT013/// OVC021/// ///TCU 03/01 Q1024 BECMG SCT015 BKN030

Heure: 19:33 (18:33 UTC)

Prévision

Le bulletin a été fait il y a 1 heure et 33 minutes, à 17:00 UTC
Prévision valable du 16 à 18 UTC au 17 à 03 UTC
Vent 10 kt de ouest/nord-ouest
Visibilité 10 km ou plus
Nuages épars à une hauteur de 1500 ft
Nuages fragmentés à une hauteur de 3000 ft
Temporairement
du 16 à 21 UTC au 17 à 03 UTC
Nuages fragmentés à une hauteur de 900 ft

TAF: LFCK 161700Z 1618/1703 29010KT 9999 SCT015 BKN030 TEMPO 1621/1703 BKN009

Observations et prévisions météorologiques de plus de 4000 aéroports (messages METAR et TAF).

Les stations disponibles sont représentées par des disques jaunes et rouges sur la carte.

Passer la souris dessus pour voir le nom de la station.

Cliquer dessus pour voir les observations et prévisions météorologiques.

Pour changer de carte: cliquez sur les boutons verts avec une croix noire pour zoomer, sur le bouton vert avec un tiret pour effectuer un zoom arrière, ou sur les flèches vertes pour les cartes adjacentes.


METAR-TAF: